Redgranite, Wisconsin
Current Conditions -  °F | °C
As of 11:56 AM on Thursday 29 Jan 2015 (Local Time) from KY50 Reporting Station
Overcast Overcast  
Wind Chill: 26°   Ceiling: 2200
Heat Index: 34°   Visibility: 10mi
Dew Point: 27°   Wind: 10mph
Humidity: 76%   Direction: 330°NNW
Pressure: 29.99"   Gusts: 21mph
Location:  44.04°N, 89.1°W
Report Text: KY50 291756Z AUTO 33009G18KT 10SM OVC022 01/M03 A2999 RMK AO2 TSNO 51023 T00111027 10011 21016 SLP160
Loading
Personal Weather Stations






























Interactive Weather Map New forecast layout! Learn more

10-Day Weather Forecast

Advertisements
Track Severe Weather on mobile